Arklow Rock — PBZM — position and weather

sailwx.info

Track history (hours):
 
Tides and Currents Weather Stations Pressure Air Temp Water Temp Dewpoint Dewpoint Depression Visibility Wind Speed Wind Dir Waves Ship Positions

Arklow Rock

Last reported at 2015-May-27 22:33 UTC. Time now 2015-May-28 20:13 UTC.
Position N 43°21' W 003°02'.

Length 90 m; draft 5.9 m.

Type: Cargo ship. MMSI: 246002000.

Date/timePositionNaut miles runAvg speedWind from/ knotsBaromVisibWave heightAir tempDewpointWater temp
2015-May-27 22:33N 43°21' W 003°02'0 0.0
2015-May-27 18:23N 43°21' W 003°02'0 0.0
2015-May-27 17:33N 43°21' W 003°02'0 0.0
2015-May-27 16:29N 43°21' W 003°02'2 2.0
2015-May-27 15:33N 43°22' W 003°03'10 9.6
2015-May-27 14:32N 43°31' W 003°09'26110.0
2015-May-26 12:30N 47°35' W 005°20'225 8.9
2015-May-25 11:21N 50°16' W 001°21'7012.1
2015-May-25 05:34N 50°37' E 000°24'1111.4
2015-May-25 04:34N 50°42' E 000°40'1110.8
2015-May-25 03:33N 50°48' E 000°54'1410.6
2015-May-25 02:11N 50°57' E 001°12'711.1
2015-May-25 01:33N 51°01' E 001°21'1312.7
2015-May-25 00:33N 51°09' E 001°36'1313.1
2015-May-24 23:33N 51°19' E 001°50'1212.3
2015-May-24 22:34N 51°29' E 002°01'1211.3
2015-May-24 21:32N 51°38' E 002°14'1110.7
2015-May-24 20:29N 51°46' E 002°25'4410.1
2015-May-24 16:05N 52°21' E 003°10'1111.6
2015-May-24 15:11N 52°29' E 003°20'712.0
2015-May-24 14:33N 52°35' E 003°28'1212.2
2015-May-24 13:33N 52°45' E 003°41'1212.0
2015-May-24 12:33N 52°54' E 003°54'1311.4
2015-May-24 11:26N 53°03' E 004°09'1010.3
2015-May-24 10:30N 53°10' E 004°20'22 9.6
2015-May-24 08:15N 53°28' E 004°40'710.4
2015-May-24 07:34N 53°30' E 004°51'1111.4
2015-May-24 06:33N 53°35' E 005°09'1212.0
2015-May-24 05:34N 53°39' E 005°28'1212.1
2015-May-24 04:34N 53°42' E 005°48'3511.0
2015-May-24 01:22N 53°52' E 006°45'1210.1
2015-May-24 00:10N 53°55' E 007°04'6 8.9
2015-May-23 23:29N 53°57' E 007°14'910.1
2015-May-23 22:33N 53°59' E 007°30'1110.7
2015-May-23 21:33N 54°01' E 007°48'1211.9
2015-May-23 20:33N 54°01' E 008°08'1312.7
2015-May-23 19:33N 53°59' E 008°29'1313.2
2015-May-23 18:33N 53°51' E 008°47'1211.5
2015-May-23 17:32N 53°53' E 009°07'3 2.6
2015-May-23 16:33N 53°54' E 009°10'0 0.5
2015-May-23 15:34N 53°55' E 009°11'1 0.9
2015-May-23 14:33N 53°55' E 009°12'16 6.5
2015-May-23 12:06N 54°10' E 009°24'5 8.6
2015-May-23 11:33N 54°11' E 009°31'8 8.1
2015-May-23 10:33N 54°18' E 009°41'8 7.9
2015-May-23 09:33N 54°22' E 009°52'7 7.4
2015-May-23 08:33N 54°22' E 010°05'2 2.3
2015-May-23 07:33N 54°22' E 010°08'1 1.4
2015-May-23 06:33N 54°23' E 010°11'1110.5
2015-May-23 05:32N 54°31' E 010°22'1111.0
2015-May-23 04:32N 54°35' E 010°40'1211.3
2015-May-23 03:30N 54°36' E 010°60'1011.1
2015-May-23 02:34N 54°35' E 011°18'1111.4
2015-May-23 01:33N 54°30' E 011°36'1111.4
2015-May-23 00:33N 54°27' E 011°55'10 9.8
2015-May-22 23:33N 54°30' E 012°11'1410.7
2015-May-22 22:13N 54°41' E 012°26'6510.9
2015-May-22 16:14N 54°55' E 014°17'811.1
2015-May-22 15:33N 54°55' E 014°30'1111.0
2015-May-22 14:33N 54°55' E 014°49'1111.2
2015-May-22 13:33N 54°58' E 015°08'1211.2
2015-May-22 12:29N 55°00' E 015°28'1111.4
2015-May-22 11:33N 55°03' E 015°46'10311.1
2015-May-22 02:19N 55°28' E 018°41'83 2.2
2015-May-20 12:09N 55°29' E 016°15'1811.2
2015-May-20 10:33N 55°27' E 015°44'1010.3
2015-May-20 09:33N 55°26' E 015°25'1010.5
2015-May-20 08:33N 55°25' E 015°07'1111.0
2015-May-20 07:33N 55°24' E 014°48'1311.2
2015-May-20 06:26N 55°17' E 014°30'1010.9
2015-May-20 05:31N 55°11' E 014°15'2811.5
2015-May-20 03:06N 55°13' E 013°27'612.0
2015-May-20 02:33N 55°13' E 013°16'1212.2
2015-May-20 01:33N 55°15' E 012°54'1110.7
2015-May-20 00:33N 55°20' E 012°38'1211.7
2015-May-19 23:33N 55°32' E 012°42'1111.1
2015-May-19 22:33N 55°43' E 012°41'1111.2
2015-May-19 21:33N 55°54' E 012°38'1010.4
2015-May-19 20:33N 56°04' E 012°36'1111.2
2015-May-19 19:33N 56°11' E 012°21'1211.3
2015-May-19 18:31N 56°18' E 012°04'1111.7
2015-May-19 17:33N 56°29' E 011°58'1111.1
2015-May-19 16:33N 56°40' E 011°55'1211.5
2015-May-19 15:33N 56°51' E 011°48'1111.5
2015-May-19 14:33N 57°02' E 011°41'1111.4
2015-May-19 13:33N 57°12' E 011°34'1111.0
2015-May-19 12:33N 57°23' E 011°27'1010.1
2015-May-19 11:33N 57°31' E 011°15'1111.4
2015-May-19 10:33N 57°36' E 010°56'1311.4
2015-May-19 09:27N 57°42' E 010°35'6 3.0
2015-May-19 07:31N 57°45' E 010°44'1111.3
2015-May-19 06:33N 57°56' E 010°39'1111.3
2015-May-19 05:33N 58°06' E 010°30'1010.0
2015-May-19 04:33N 58°15' E 010°22'9 9.2
2015-May-19 03:33N 58°24' E 010°15'10 9.3
2015-May-19 02:30N 58°32' E 010°07'3110.1
2015-May-18 23:23N 59°02' E 009°44'  
Track history (hours):
 
Tides and Currents Weather Stations Pressure Air Temp Water Temp Dewpoint Dewpoint Depression Visibility Wind Speed Wind Dir Waves Ship Positions

Arklow Rock

Last reported at 2015-May-27 22:33 UTC. Time now 2015-May-28 20:13 UTC.
Position N 43°21' W 003°02'.

Length 90 m; draft 5.9 m.

Type: Cargo ship. MMSI: 246002000.

Date/timePositionNaut miles runAvg speedWind from/ knotsBaromVisibWave heightAir tempDewpointWater temp
2015-May-27 22:33N 43°21' W 003°02'0 0.0
2015-May-27 18:23N 43°21' W 003°02'0 0.0
2015-May-27 17:33N 43°21' W 003°02'0 0.0
2015-May-27 16:29N 43°21' W 003°02'2 2.0
2015-May-27 15:33N 43°22' W 003°03'10 9.6
2015-May-27 14:32N 43°31' W 003°09'26110.0
2015-May-26 12:30N 47°35' W 005°20'225 8.9
2015-May-25 11:21N 50°16' W 001°21'7012.1
2015-May-25 05:34N 50°37' E 000°24'1111.4
2015-May-25 04:34N 50°42' E 000°40'1110.8
2015-May-25 03:33N 50°48' E 000°54'1410.6
2015-May-25 02:11N 50°57' E 001°12'711.1
2015-May-25 01:33N 51°01' E 001°21'1312.7
2015-May-25 00:33N 51°09' E 001°36'1313.1
2015-May-24 23:33N 51°19' E 001°50'1212.3
2015-May-24 22:34N 51°29' E 002°01'1211.3
2015-May-24 21:32N 51°38' E 002°14'1110.7
2015-May-24 20:29N 51°46' E 002°25'4410.1
2015-May-24 16:05N 52°21' E 003°10'1111.6
2015-May-24 15:11N 52°29' E 003°20'712.0
2015-May-24 14:33N 52°35' E 003°28'1212.2
2015-May-24 13:33N 52°45' E 003°41'1212.0
2015-May-24 12:33N 52°54' E 003°54'1311.4
2015-May-24 11:26N 53°03' E 004°09'1010.3
2015-May-24 10:30N 53°10' E 004°20'22 9.6
2015-May-24 08:15N 53°28' E 004°40'710.4
2015-May-24 07:34N 53°30' E 004°51'1111.4
2015-May-24 06:33N 53°35' E 005°09'1212.0
2015-May-24 05:34N 53°39' E 005°28'1212.1
2015-May-24 04:34N 53°42' E 005°48'3511.0
2015-May-24 01:22N 53°52' E 006°45'1210.1
2015-May-24 00:10N 53°55' E 007°04'6 8.9
2015-May-23 23:29N 53°57' E 007°14'910.1
2015-May-23 22:33N 53°59' E 007°30'1110.7
2015-May-23 21:33N 54°01' E 007°48'1211.9
2015-May-23 20:33N 54°01' E 008°08'1312.7
2015-May-23 19:33N 53°59' E 008°29'1313.2
2015-May-23 18:33N 53°51' E 008°47'1211.5
2015-May-23 17:32N 53°53' E 009°07'3 2.6
2015-May-23 16:33N 53°54' E 009°10'0 0.5
2015-May-23 15:34N 53°55' E 009°11'1 0.9
2015-May-23 14:33N 53°55' E 009°12'16 6.5
2015-May-23 12:06N 54°10' E 009°24'5 8.6
2015-May-23 11:33N 54°11' E 009°31'8 8.1
2015-May-23 10:33N 54°18' E 009°41'8 7.9
2015-May-23 09:33N 54°22' E 009°52'7 7.4
2015-May-23 08:33N 54°22' E 010°05'2 2.3
2015-May-23 07:33N 54°22' E 010°08'1 1.4
2015-May-23 06:33N 54°23' E 010°11'1110.5
2015-May-23 05:32N 54°31' E 010°22'1111.0
2015-May-23 04:32N 54°35' E 010°40'1211.3
2015-May-23 03:30N 54°36' E 010°60'1011.1
2015-May-23 02:34N 54°35' E 011°18'1111.4
2015-May-23 01:33N 54°30' E 011°36'1111.4
2015-May-23 00:33N 54°27' E 011°55'10 9.8
2015-May-22 23:33N 54°30' E 012°11'1410.7
2015-May-22 22:13N 54°41' E 012°26'6510.9
2015-May-22 16:14N 54°55' E 014°17'811.1
2015-May-22 15:33N 54°55' E 014°30'1111.0
2015-May-22 14:33N 54°55' E 014°49'1111.2
2015-May-22 13:33N 54°58' E 015°08'1211.2
2015-May-22 12:29N 55°00' E 015°28'1111.4
2015-May-22 11:33N 55°03' E 015°46'10311.1
2015-May-22 02:19N 55°28' E 018°41'83 2.2
2015-May-20 12:09N 55°29' E 016°15'1811.2
2015-May-20 10:33N 55°27' E 015°44'1010.3
2015-May-20 09:33N 55°26' E 015°25'1010.5
2015-May-20 08:33N 55°25' E 015°07'1111.0
2015-May-20 07:33N 55°24' E 014°48'1311.2
2015-May-20 06:26N 55°17' E 014°30'1010.9
2015-May-20 05:31N 55°11' E 014°15'2811.5
2015-May-20 03:06N 55°13' E 013°27'612.0
2015-May-20 02:33N 55°13' E 013°16'1212.2
2015-May-20 01:33N 55°15' E 012°54'1110.7
2015-May-20 00:33N 55°20' E 012°38'1211.7
2015-May-19 23:33N 55°32' E 012°42'1111.1
2015-May-19 22:33N 55°43' E 012°41'1111.2
2015-May-19 21:33N 55°54' E 012°38'1010.4
2015-May-19 20:33N 56°04' E 012°36'1111.2
2015-May-19 19:33N 56°11' E 012°21'1211.3
2015-May-19 18:31N 56°18' E 012°04'1111.7
2015-May-19 17:33N 56°29' E 011°58'1111.1
2015-May-19 16:33N 56°40' E 011°55'1211.5
2015-May-19 15:33N 56°51' E 011°48'1111.5
2015-May-19 14:33N 57°02' E 011°41'1111.4
2015-May-19 13:33N 57°12' E 011°34'1111.0
2015-May-19 12:33N 57°23' E 011°27'1010.1
2015-May-19 11:33N 57°31' E 011°15'1111.4
2015-May-19 10:33N 57°36' E 010°56'1311.4
2015-May-19 09:27N 57°42' E 010°35'6 3.0
2015-May-19 07:31N 57°45' E 010°44'1111.3
2015-May-19 06:33N 57°56' E 010°39'1111.3
2015-May-19 05:33N 58°06' E 010°30'1010.0
2015-May-19 04:33N 58°15' E 010°22'9 9.2
2015-May-19 03:33N 58°24' E 010°15'10 9.3
2015-May-19 02:30N 58°32' E 010°07'3110.1
2015-May-18 23:23N 59°02' E 009°44'  

Dump ship's entire track history